Wetterdaten: Woche 17.05.10 - 23.05.10 (KW20)
Datum Zeit Temp. A. Feuchte A. Luftdruck Regen Wind Richtung Taupunkt Windchill Windben
17.05.2010 00:00 8,7 C 87 % 1010,9 hPa 1,6 l/m 11,5 km/h NW 6,6 C 5,3 C 32,2 km/h
17.05.2010 01:00 8,2 C 84 % 1011,3 hPa 1,6 l/m 13,4 km/h N-NW 5,6 C 3,9 C 33,4 km/h
17.05.2010 02:00 8,1 C 85 % 1011,5 hPa 0,5 l/m 9,6 km/h N-NW 5,6 C 5,7 C 26,1 km/h
17.05.2010 03:00 8,1 C 85 % 1011,3 hPa 0,8 l/m 7,6 km/h NW 5,8 C 7,2 C 21,7 km/h
17.05.2010 04:00 8,7 C 85 % 1011,5 hPa 0,3 l/m 8,9 km/h N-NO 6,3 C 7,0 C 22,1 km/h
17.05.2010 05:00 9,4 C 81 % 1011,3 hPa 0,0 l/m 9,3 km/h N-NW 6,2 C 7,5 C 27,8 km/h
17.05.2010 06:00 10,2 C 74 % 1011,4 hPa 0,0 l/m 11,8 km/h O-NO 5,7 C 6,9 C 30,2 km/h
17.05.2010 07:00 10,6 C 72 % 1012,0 hPa 0,0 l/m 9,4 km/h W-SW 5,6 C 8,6 C 26,6 km/h
17.05.2010 08:00 11,0 C 69 % 1012,5 hPa 0,3 l/m 11,0 km/h N-NO 5,5 C 8,3 C 26,1 km/h
17.05.2010 09:00 11,0 C 71 % 1012,9 hPa 0,0 l/m 10,0 km/h NW 5,9 C 8,7 C 25,3 km/h
17.05.2010 10:00 11,4 C 71 % 1013,3 hPa 0,0 l/m 10,6 km/h N-NW 6,4 C 8,9 C 27,0 km/h
17.05.2010 11:00 12,1 C 70 % 1013,4 hPa 0,0 l/m 10,7 km/h N-NW 6,7 C 9,6 C 25,7 km/h
17.05.2010 12:00 13,5 C 61 % 1012,9 hPa 0,0 l/m 11,3 km/h N 6,0 C 10,9 C 29,8 km/h
17.05.2010 13:00 13,9 C 54 % 1012,9 hPa 0,0 l/m 16,2 km/h N 4,8 C 9,5 C 35,0 km/h
17.05.2010 14:00 14,1 C 57 % 1013,0 hPa 0,0 l/m 12,5 km/h N-NO 5,6 C 11,0 C 31,0 km/h
17.05.2010 15:00 14,3 C 57 % 1013,1 hPa 0,0 l/m 10,3 km/h N-NW 5,9 C 12,2 C 22,9 km/h
17.05.2010 16:00 14,2 C 59 % 1013,3 hPa 0,0 l/m 9,3 km/h NW 6,2 C 12,6 C 23,3 km/h
17.05.2010 17:00 13,9 C 62 % 1013,5 hPa 0,0 l/m 7,8 km/h N-NW 6,8 C 13,1 C 19,7 km/h
17.05.2010 18:00 13,2 C 69 % 1013,5 hPa 0,0 l/m 4,7 km/h N-NW 7,6 C 13,2 C 12,1 km/h
17.05.2010 19:00 13,0 C 71 % 1013,7 hPa 0,0 l/m 4,4 km/h N-NW 7,7 C 13,0 C 11,3 km/h
17.05.2010 20:00 12,3 C 75 % 1014,2 hPa 0,5 l/m 1,8 km/h N-NW 8,1 C 12,3 C 6,4 km/h
17.05.2010 21:00 11,5 C 80 % 1014,9 hPa 0,5 l/m 0,2 km/h N 8,1 C 11,5 C 1,6 km/h
17.05.2010 22:00 11,5 C 78 % 1015,1 hPa 0,0 l/m 2,9 km/h N-NW 7,8 C 11,5 C 8,4 km/h
17.05.2010 23:00 12,1 C 73 % 1015,1 hPa 0,0 l/m 3,4 km/h N-NO 7,4 C 12,1 C 11,7 km/h
18.05.2010 00:00 11,3 C 77 % 1015,3 hPa 0,0 l/m 3,5 km/h N-NO 7,5 C 11,3 C 10,0 km/h
18.05.2010 01:00 11,8 C 73 % 1015,4 hPa 0,0 l/m 7,0 km/h NW 7,1 C 11,4 C 17,3 km/h
18.05.2010 02:00 11,7 C 73 % 1015,3 hPa 0,0 l/m 6,6 km/h N-NW 6,9 C 11,5 C 19,3 km/h
18.05.2010 03:00 12,0 C 69 % 1015,1 hPa 0,0 l/m 6,5 km/h NO 6,5 C 11,7 C 18,5 km/h
18.05.2010 04:00 12,3 C 67 % 1014,8 hPa 0,0 l/m 9,3 km/h N-NW 6,4 C 10,6 C 25,8 km/h
18.05.2010 05:00 11,9 C 71 % 1014,9 hPa 0,3 l/m 6,5 km/h NW 6,8 C 11,3 C 18,1 km/h
18.05.2010 06:00 11,2 C 76 % 1015,1 hPa 0,0 l/m 5,8 km/h N 7,1 C 11,1 C 16,5 km/h
18.05.2010 07:00 11,2 C 78 % 1015,4 hPa 0,3 l/m 7,5 km/h N-NW 7,4 C 10,4 C 20,5 km/h
18.05.2010 08:00 11,4 C 77 % 1015,8 hPa 0,0 l/m 7,2 km/h NW 7,5 C 10,8 C 18,5 km/h
18.05.2010 09:00 12,0 C 73 % 1016,1 hPa 0,0 l/m 8,4 km/h N-NW 7,3 C 10,8 C 22,9 km/h
18.05.2010 10:00 12,9 C 68 % 1016,3 hPa 0,0 l/m 9,5 km/h NW 7,2 C 11,0 C 23,3 km/h
18.05.2010 11:00 13,7 C 64 % 1016,4 hPa 0,0 l/m 12,6 km/h W-NW 7,1 C 10,6 C 29,0 km/h
18.05.2010 12:00 13,4 C 67 % 1016,8 hPa 0,0 l/m 8,5 km/h W 7,5 C 12,3 C 24,1 km/h
18.05.2010 13:00 12,5 C 70 % 1017,2 hPa 0,0 l/m 6,4 km/h S 7,1 C 12,2 C 24,6 km/h
18.05.2010 14:00 13,0 C 67 % 1017,1 hPa 0,0 l/m 8,1 km/h W-SW 6,9 C 11,9 C 29,0 km/h
18.05.2010 15:00 12,4 C 67 % 1017,3 hPa 0,0 l/m 8,1 km/h NW 6,4 C 11,4 C 24,9 km/h
18.05.2010 16:00 12,3 C 68 % 1017,5 hPa 0,0 l/m 5,8 km/h S-SW 6,6 C 12,3 C 20,5 km/h
18.05.2010 17:00 11,9 C 69 % 1017,7 hPa 0,0 l/m 6,8 km/h W 6,4 C 11,7 C 21,3 km/h
18.05.2010 18:00 11,7 C 69 % 1017,8 hPa 0,0 l/m 6,8 km/h SW 6,2 C 11,5 C 22,5 km/h
18.05.2010 19:00 10,6 C 77 % 1018,7 hPa 0,5 l/m 4,5 km/h NW 6,8 C 10,6 C 17,7 km/h
18.05.2010 20:00 9,8 C 80 % 1019,2 hPa 0,0 l/m 4,5 km/h W-NW 6,6 C 9,8 C 16,9 km/h
18.05.2010 21:00 9,8 C 79 % 1019,5 hPa 0,3 l/m 3,9 km/h S 6,3 C 9,8 C 16,1 km/h
18.05.2010 22:00 9,8 C 78 % 1019,6 hPa 0,0 l/m 3,5 km/h NW 6,1 C 9,8 C 14,9 km/h
18.05.2010 23:00 9,8 C 76 % 1019,7 hPa 0,0 l/m 3,8 km/h N-NO 5,8 C 9,8 C 12,9 km/h
19.05.2010 00:00 9,5 C 76 % 1020,0 hPa 0,0 l/m 5,4 km/h N-NW 5,6 C 9,4 C 14,9 km/h
19.05.2010 01:00 9,2 C 76 % 1019,8 hPa 0,0 l/m 2,3 km/h N-NW 5,2 C 9,2 C 8,9 km/h
19.05.2010 02:00 8,7 C 78 % 1019,5 hPa 0,0 l/m 2,6 km/h N-NW 5,2 C 8,7 C 8,0 km/h
19.05.2010 03:00 8,5 C 79 % 1019,0 hPa 0,0 l/m 2,1 km/h N-NO 5,2 C 8,5 C 8,4 km/h
19.05.2010 04:00 8,3 C 77 % 1018,7 hPa 0,0 l/m 3,8 km/h NW 4,4 C 8,3 C 16,5 km/h
19.05.2010 05:00 8,2 C 76 % 1018,5 hPa 0,0 l/m 4,4 km/h N-NO 4,2 C 8,2 C 16,1 km/h
19.05.2010 06:00 8,4 C 76 % 1018,5 hPa 0,0 l/m 3,6 km/h NO 4,4 C 8,4 C 14,9 km/h
19.05.2010 07:00 9,1 C 73 % 1018,4 hPa 0,0 l/m 4,5 km/h N-NW 4,6 C 9,1 C 18,9 km/h
19.05.2010 08:00 9,9 C 70 % 1018,6 hPa 0,0 l/m 4,7 km/h NW 4,7 C 9,9 C 18,1 km/h
19.05.2010 09:00 10,8 C 65 % 1018,6 hPa 0,0 l/m 7,0 km/h W 4,4 C 10,2 C 24,1 km/h
19.05.2010 10:00 12,1 C 59 % 1018,6 hPa 0,0 l/m 7,7 km/h W-SW 4,4 C 11,2 C 27,4 km/h
19.05.2010 11:00 12,5 C 57 % 1018,7 hPa 0,0 l/m 9,4 km/h NO 4,3 C 10,7 C 25,2 km/h
19.05.2010 13:00 13,1 C 56 % 1018,7 hPa 0,0 l/m 10,5 km/h S-SO 4,5 C 10,8 C 22,0 km/h
19.05.2010 14:00 12,8 C 58 % 1018,9 hPa 0,0 l/m 7,7 km/h NW 4,7 C 12,0 C 17,7 km/h
19.05.2010 15:00 12,4 C 59 % 1019,1 hPa 0,0 l/m 8,3 km/h NW 4,6 C 11,2 C 22,1 km/h
19.05.2010 16:00 12,3 C 60 % 1019,3 hPa 0,0 l/m 6,3 km/h NW 4,8 C 12,3 C 19,3 km/h
19.05.2010 17:00 11,6 C 67 % 1019,6 hPa 0,0 l/m 5,8 km/h W 5,7 C 11,4 C 20,9 km/h
19.05.2010 18:00 10,6 C 75 % 1020,0 hPa 0,5 l/m 4,7 km/h NW 6,4 C 10,6 C 16,6 km/h
19.05.2010 19:00 10,5 C 74 % 1020,4 hPa 0,0 l/m 5,6 km/h NW 6,0 C 10,5 C 20,9 km/h
19.05.2010 20:00 10,0 C 74 % 1021,0 hPa 0,0 l/m 4,8 km/h NW 5,5 C 10,0 C 21,7 km/h
19.05.2010 21:00 9,4 C 77 % 1021,5 hPa 0,0 l/m 4,8 km/h NW 5,5 C 9,4 C 20,9 km/h
19.05.2010 22:00 9,1 C 78 % 1021,7 hPa 0,0 l/m 4,8 km/h NW 5,5 C 9,1 C 20,1 km/h
19.05.2010 23:00 9,2 C 77 % 1021,7 hPa 0,0 l/m 4,0 km/h NW 5,4 C 9,2 C 20,9 km/h
20.05.2010 00:00 9,1 C 77 % 1021,9 hPa 0,0 l/m 4,8 km/h NW 5,2 C 9,1 C 16,9 km/h
20.05.2010 01:00 9,1 C 77 % 1022,0 hPa 0,0 l/m 4,8 km/h NW 5,1 C 9,1 C 20,1 km/h
20.05.2010 02:00 8,9 C 79 % 1021,9 hPa 0,0 l/m 4,8 km/h NW 5,4 C 8,9 C 16,1 km/h
20.05.2010 03:00 8,8 C 80 % 1021,8 hPa 0,0 l/m 4,8 km/h NW 5,5 C 8,8 C 20,9 km/h
20.05.2010 04:00 8,8 C 79 % 1021,9 hPa 0,0 l/m 4,8 km/h NW 5,4 C 8,8 C 16,9 km/h
20.05.2010 05:00 8,6 C 80 % 1022,3 hPa 0,0 l/m 4,8 km/h NW 5,3 C 8,6 C 14,5 km/h
20.05.2010 06:00 8,7 C 80 % 1022,6 hPa 0,0 l/m 5,2 km/h S-SW 5,5 C 8,7 C 15,0 km/h
20.05.2010 07:00 9,0 C 80 % 1022,7 hPa 0,0 l/m 5,1 km/h N-NO 5,8 C 9,0 C 16,1 km/h
20.05.2010 08:00 9,9 C 79 % 1023,3 hPa 0,0 l/m 4,3 km/h N-NW 6,4 C 9,9 C 11,7 km/h
20.05.2010 09:00 10,2 C 78 % 1023,7 hPa 0,0 l/m 6,0 km/h NW 6,5 C 10,0 C 16,5 km/h
20.05.2010 10:00 10,7 C 77 % 1023,6 hPa 0,0 l/m 5,8 km/h NW 6,7 C 10,7 C 18,5 km/h
20.05.2010 11:00 11,3 C 76 % 1023,7 hPa 0,0 l/m 5,6 km/h NW 7,1 C 11,3 C 17,7 km/h
20.05.2010 12:00 12,6 C 73 % 1023,5 hPa 0,3 l/m 5,6 km/h NW 7,8 C 12,6 C 23,3 km/h
20.05.2010 13:00 14,0 C 69 % 1023,1 hPa 0,0 l/m 6,4 km/h NW 8,4 C 14,0 C 21,7 km/h
20.05.2010 14:00 13,4 C 72 % 1023,0 hPa 0,0 l/m 5,6 km/h W-SW 8,5 C 13,4 C 20,1 km/h
20.05.2010 15:00 13,2 C 73 % 1022,6 hPa 0,0 l/m 5,5 km/h W-NW 8,5 C 13,2 C 18,5 km/h
20.05.2010 16:00 13,8 C 72 % 1022,2 hPa 0,0 l/m 6,7 km/h W 8,8 C 13,4 C 23,3 km/h
20.05.2010 17:00 13,6 C 72 % 1022,5 hPa 0,0 l/m 5,9 km/h S 8,5 C 13,5 C 20,1 km/h
20.05.2010 18:00 12,9 C 74 % 1022,2 hPa 0,0 l/m 6,0 km/h SO 8,4 C 12,9 C 22,5 km/h
20.05.2010 19:00 12,5 C 76 % 1022,4 hPa 0,0 l/m 4,8 km/h S-SW 8,3 C 12,5 C 15,3 km/h
20.05.2010 20:00 12,4 C 76 % 1022,4 hPa 0,0 l/m 4,9 km/h W 8,3 C 12,4 C 22,9 km/h
20.05.2010 21:00 12,4 C 77 % 1022,6 hPa 0,0 l/m 6,4 km/h NW 8,4 C 12,3 C 20,9 km/h
20.05.2010 22:00 12,3 C 78 % 1022,7 hPa 0,0 l/m 5,7 km/h N-NW 8,7 C 12,3 C 20,9 km/h
20.05.2010 23:00 12,3 C 79 % 1022,7 hPa 0,0 l/m 6,2 km/h N-NW 8,9 C 12,1 C 20,1 km/h
21.05.2010 00:00 12,4 C 80 % 1022,5 hPa 0,0 l/m 5,8 km/h S-SO 9,0 C 12,4 C 18,1 km/h
21.05.2010 01:00 12,5 C 80 % 1022,1 hPa 0,0 l/m 5,5 km/h S-SW 9,1 C 12,5 C 18,5 km/h
21.05.2010 02:00 12,5 C 80 % 1021,9 hPa 0,0 l/m 5,7 km/h NW 9,2 C 12,4 C 16,1 km/h
21.05.2010 03:00 12,4 C 81 % 1021,4 hPa 0,0 l/m 7,3 km/h NW 9,2 C 11,8 C 18,5 km/h
21.05.2010 04:00 12,4 C 81 % 1021,3 hPa 0,0 l/m 6,1 km/h NW 9,2 C 12,4 C 16,5 km/h
21.05.2010 05:00 12,1 C 84 % 1021,3 hPa 2,1 l/m 5,1 km/h O 9,5 C 12,0 C 15,7 km/h
21.05.2010 06:00 11,7 C 87 % 1021,1 hPa 0,0 l/m 4,3 km/h NW 9,6 C 11,7 C 15,3 km/h
21.05.2010 07:00 12,1 C 87 % 1021,3 hPa 0,0 l/m 4,5 km/h N 10,0 C 12,1 C 13,3 km/h
21.05.2010 08:00 12,3 C 87 % 1021,3 hPa 0,8 l/m 3,9 km/h N-NW 10,2 C 12,3 C 13,7 km/h
21.05.2010 09:00 12,8 C 88 % 1021,2 hPa 0,3 l/m 4,9 km/h NW 10,7 C 12,7 C 17,7 km/h
21.05.2010 10:00 14,1 C 84 % 1021,2 hPa 0,0 l/m 5,6 km/h NW 11,4 C 14,1 C 20,9 km/h
21.05.2010 11:00 13,9 C 84 % 1021,4 hPa 0,5 l/m 4,8 km/h NW 11,2 C 13,9 C 15,3 km/h
21.05.2010 12:00 13,5 C 87 % 1021,5 hPa 1,6 l/m 3,2 km/h NW 11,4 C 13,5 C 12,9 km/h
21.05.2010 13:00 15,3 C 84 % 1021,0 hPa 0,0 l/m 4,0 km/h NW 12,5 C 15,3 C 18,5 km/h
21.05.2010 14:00 15,0 C 83 % 1020,6 hPa 0,3 l/m 4,0 km/h N-NW 12,1 C 15,0 C 20,9 km/h
21.05.2010 15:00 15,8 C 81 % 1020,3 hPa 0,0 l/m 5,3 km/h N-NW 12,4 C 15,8 C 17,3 km/h
21.05.2010 16:00 15,4 C 80 % 1019,9 hPa 0,0 l/m 4,6 km/h O 12,0 C 15,4 C 17,3 km/h
21.05.2010 17:00 16,0 C 81 % 1019,8 hPa 0,0 l/m 5,6 km/h S-SW 12,6 C 16,0 C 16,1 km/h
21.05.2010 18:00 15,8 C 80 % 1019,8 hPa 0,3 l/m 5,2 km/h W-SW 12,4 C 15,8 C 17,7 km/h
21.05.2010 19:00 15,6 C 80 % 1020,0 hPa 0,0 l/m 5,1 km/h NW 12,1 C 15,6 C 15,7 km/h
21.05.2010 20:00 15,0 C 81 % 1020,5 hPa 0,0 l/m 3,7 km/h S-SW 11,8 C 15,0 C 12,9 km/h
21.05.2010 21:00 14,9 C 82 % 1021,0 hPa 0,0 l/m 3,6 km/h N-NW 11,7 C 14,9 C 11,7 km/h
21.05.2010 22:00 14,8 C 82 % 1021,3 hPa 0,0 l/m 4,4 km/h N 11,8 C 14,8 C 12,9 km/h
21.05.2010 23:00 14,6 C 83 % 1021,3 hPa 0,0 l/m 5,2 km/h NW 11,8 C 14,6 C 13,3 km/h
22.05.2010 00:00 14,3 C 84 % 1021,2 hPa 0,0 l/m 3,5 km/h NW 11,7 C 14,3 C 10,1 km/h
22.05.2010 01:00 14,3 C 85 % 1021,0 hPa 0,0 l/m 4,2 km/h N-NW 11,7 C 14,3 C 9,3 km/h
22.05.2010 02:00 14,3 C 85 % 1020,6 hPa 0,0 l/m 4,7 km/h NW 11,8 C 14,3 C 10,5 km/h
22.05.2010 03:00 14,2 C 85 % 1020,4 hPa 0,0 l/m 4,6 km/h NW 11,7 C 14,2 C 11,3 km/h
22.05.2010 04:00 14,1 C 85 % 1020,3 hPa 0,0 l/m 4,6 km/h N-NW 11,6 C 14,1 C 10,5 km/h
22.05.2010 05:00 14,0 C 85 % 1020,4 hPa 0,0 l/m 4,0 km/h N-NW 11,5 C 14,0 C 8,9 km/h
22.05.2010 06:00 14,1 C 85 % 1020,9 hPa 0,0 l/m 4,6 km/h N-NW 11,6 C 14,1 C 8,9 km/h
22.05.2010 07:00 14,7 C 84 % 1020,9 hPa 0,0 l/m 5,8 km/h N-NW 12,1 C 14,5 C 15,3 km/h
22.05.2010 08:00 15,2 C 82 % 1020,9 hPa 0,0 l/m 5,6 km/h N-NW 12,1 C 15,2 C 16,1 km/h
22.05.2010 09:00 16,0 C 81 % 1020,8 hPa 0,0 l/m 6,2 km/h N-NW 12,7 C 15,9 C 15,7 km/h
22.05.2010 10:00 17,3 C 78 % 1020,7 hPa 0,0 l/m 5,5 km/h NW 13,5 C 17,3 C 17,3 km/h
22.05.2010 11:00 17,9 C 76 % 1020,4 hPa 0,0 l/m 5,9 km/h NW 13,5 C 17,9 C 18,9 km/h
22.05.2010 12:00 19,1 C 72 % 1019,9 hPa 0,0 l/m 7,0 km/h N-NW 13,8 C 18,8 C 20,9 km/h
22.05.2010 13:00 19,7 C 67 % 1019,2 hPa 0,0 l/m 6,6 km/h NW 13,4 C 19,5 C 20,1 km/h
22.05.2010 14:00 20,4 C 64 % 1018,7 hPa 0,0 l/m 6,7 km/h N-NW 13,4 C 20,2 C 20,1 km/h
22.05.2010 15:00 18,5 C 70 % 1019,3 hPa 0,0 l/m 8,4 km/h N-NW 12,8 C 17,6 C 19,3 km/h
22.05.2010 16:00 17,0 C 74 % 1018,9 hPa 0,5 l/m 4,3 km/h N 12,3 C 17,0 C 11,7 km/h
22.05.2010 17:00 17,7 C 72 % 1017,8 hPa 0,0 l/m 3,9 km/h SW 12,6 C 17,7 C 16,5 km/h
22.05.2010 18:00 17,6 C 74 % 1017,5 hPa 0,0 l/m 4,1 km/h O-NO 12,9 C 17,6 C 10,9 km/h
22.05.2010 19:00 17,2 C 75 % 1017,8 hPa 0,0 l/m 4,1 km/h N-NW 12,8 C 17,2 C 11,7 km/h
22.05.2010 20:00 15,8 C 77 % 1018,3 hPa 0,0 l/m 4,1 km/h N-NW 11,8 C 15,8 C 9,3 km/h
22.05.2010 21:00 15,3 C 78 % 1018,7 hPa 0,0 l/m 2,6 km/h N-NW 11,5 C 15,3 C 8,0 km/h
22.05.2010 22:00 15,4 C 77 % 1018,6 hPa 0,0 l/m 3,4 km/h S-SO 11,4 C 15,4 C 9,7 km/h
22.05.2010 23:00 15,0 C 78 % 1018,4 hPa 0,0 l/m 4,2 km/h N-NW 11,1 C 15,0 C 11,7 km/h
23.05.2010 00:00 14,9 C 77 % 1018,2 hPa 0,0 l/m 4,4 km/h NW 10,8 C 14,9 C 10,5 km/h
23.05.2010 01:00 14,7 C 78 % 1018,0 hPa 0,0 l/m 4,3 km/h N-NW 10,9 C 14,7 C 11,3 km/h
23.05.2010 02:00 14,3 C 81 % 1018,0 hPa 0,0 l/m 5,3 km/h NW 11,0 C 14,3 C 13,7 km/h
23.05.2010 03:00 14,2 C 80 % 1018,2 hPa 0,0 l/m 4,3 km/h NW 10,8 C 14,2 C 12,9 km/h
23.05.2010 04:00 14,2 C 79 % 1017,9 hPa 0,0 l/m 3,5 km/h NW 10,6 C 14,2 C 10,1 km/h
23.05.2010 05:00 14,0 C 80 % 1017,9 hPa 0,0 l/m 2,8 km/h N-NW 10,6 C 14,0 C 10,5 km/h
23.05.2010 06:00 14,4 C 79 % 1017,9 hPa 0,0 l/m 3,0 km/h N-NW 10,8 C 14,4 C 10,5 km/h
23.05.2010 07:00 15,1 C 78 % 1018,3 hPa 0,0 l/m 5,4 km/h NW 11,3 C 15,1 C 13,7 km/h
23.05.2010 08:00 15,5 C 77 % 1018,7 hPa 0,0 l/m 4,8 km/h NW 11,5 C 15,5 C 14,5 km/h
23.05.2010 09:00 16,4 C 76 % 1018,8 hPa 0,0 l/m 4,2 km/h N-NW 12,1 C 16,4 C 10,9 km/h
23.05.2010 10:00 17,7 C 73 % 1018,8 hPa 0,0 l/m 5,3 km/h N-NW 12,7 C 17,7 C 14,5 km/h
23.05.2010 11:00 19,0 C 67 % 1018,4 hPa 0,0 l/m 4,7 km/h N-NW 12,8 C 19,0 C 16,1 km/h
23.05.2010 12:00 20,1 C 65 % 1018,0 hPa 0,0 l/m 4,7 km/h N-NW 13,2 C 20,1 C 12,9 km/h
23.05.2010 13:00 20,6 C 64 % 1017,8 hPa 0,0 l/m 5,9 km/h N-NW 13,5 C 20,6 C 15,3 km/h
23.05.2010 14:00 20,7 C 62 % 1017,2 hPa 0,0 l/m 4,6 km/h NW 13,2 C 20,7 C 14,1 km/h
23.05.2010 15:00 19,1 C 66 % 1017,2 hPa 0,0 l/m 4,7 km/h NW 12,5 C 19,1 C 12,5 km/h
23.05.2010 16:00 19,9 C 64 % 1016,3 hPa 0,0 l/m 3,7 km/h W-SW 12,8 C 19,9 C 13,3 km/h
23.05.2010 17:00 20,4 C 58 % 1015,9 hPa 0,0 l/m 4,8 km/h N-NW 11,7 C 20,4 C 13,7 km/h
23.05.2010 18:00 20,0 C 58 % 1015,6 hPa 0,0 l/m 2,6 km/h W-SW 11,4 C 20,0 C 10,1 km/h
23.05.2010 19:00 19,0 C 63 % 1015,7 hPa 0,0 l/m 3,2 km/h W-SW 11,7 C 19,0 C 10,5 km/h
23.05.2010 20:00 17,8 C 70 % 1015,8 hPa 0,0 l/m 0,5 km/h NW 12,2 C 17,8 C 3,6 km/h
23.05.2010 21:00 17,3 C 70 % 1016,1 hPa 0,0 l/m 1,4 km/h NW 11,8 C 17,3 C 4,4 km/h
23.05.2010 22:00 16,7 C 73 % 1016,2 hPa 0,0 l/m 1,6 km/h NW 11,9 C 16,7 C 4,0 km/h
23.05.2010 23:00 16,8 C 73 % 1016,1 hPa 0,0 l/m 0,7 km/h N 11,8 C 16,8 C 3,6 km/h
Min-Datum _ 17.05.10 17.05.10 17.05.10 - 17.05.10 - 19.05.10 17.05.10 17.05.10
_ Min-Zeit 02:30 13:00 00:00 - 21:00 - 10:15 01:15 21:00
Minimum _ 8,0 C 52 % 1010,7 hPa - 0,0 km/h - 3,9 C 1,5 C 0,0 km/h
Max-Datum _ 23.05.10 21.05.10 20.05.10 21.05.10 17.05.10 - 23.05.10 23.05.10 17.05.10
_ Max-Zeit 14:00 09:30 09:15 05:15 01:15 - 13:15 14:00 13:00
Maximum _ 21,2 C 88 % 1023,8 hPa 2,1 l/m 18,4 km/h
N-NW
- 14,3 C 21,2 C 45,1 km/h
N-NW
Durchschnitt _ 13,1 C 75 % 1018,5 hPa #14,3 l/m 5,7 km/h N-NW 8,7 C 12,7 C 17,2 km/h